createdAt,value
2018-05-04T00:01:05.752Z,3.90
2018-05-04T00:03:35.303Z,4.67
2018-05-04T00:06:04.263Z,4.43
2018-05-04T00:08:38.413Z,5.03
2018-05-04T00:11:07.505Z,3.00
2018-05-04T00:13:43.358Z,7.17
2018-05-04T00:16:12.381Z,5.37
2018-05-04T00:18:42.800Z,4.43
2018-05-04T00:21:11.610Z,3.37
2018-05-04T00:23:45.582Z,4.17
2018-05-04T00:26:15.288Z,3.70
2018-05-04T00:28:47.617Z,4.30
2018-05-04T00:31:16.693Z,3.83
2018-05-04T00:33:53.567Z,8.63
2018-05-04T00:36:23.157Z,2.70
2018-05-04T00:38:53.106Z,3.97
2018-05-04T00:41:21.825Z,4.13
2018-05-04T00:43:56.228Z,3.70
2018-05-04T00:46:25.119Z,4.37
2018-05-04T00:49:01.289Z,4.13
2018-05-04T00:51:30.357Z,4.20
2018-05-04T00:54:22.813Z,2.43
2018-05-04T00:56:52.040Z,5.07
2018-05-04T00:59:20.733Z,2.57
2018-05-04T01:01:49.601Z,4.33
2018-05-04T01:04:18.579Z,4.00
2018-05-04T01:06:47.375Z,2.97
2018-05-04T01:09:16.774Z,2.30
2018-05-04T01:11:46.157Z,4.67
2018-05-04T01:14:14.953Z,4.50
2018-05-04T01:16:43.837Z,4.07
2018-05-04T01:19:13.535Z,4.20
2018-05-04T01:21:42.377Z,3.63
2018-05-04T01:24:15.179Z,2.60
2018-05-04T01:26:44.424Z,4.60
2018-05-04T01:29:20.307Z,4.53
2018-05-04T01:31:49.216Z,10.60
2018-05-04T01:34:19.343Z,3.23
2018-05-04T01:36:48.299Z,3.93
2018-05-04T01:39:25.104Z,3.37
2018-05-04T01:41:53.838Z,3.00
2018-05-04T01:44:23.989Z,5.93
2018-05-04T01:46:54.042Z,3.63
2018-05-04T01:49:25.937Z,3.83
2018-05-04T01:51:54.723Z,3.73
2018-05-04T01:54:28.289Z,3.17
2018-05-04T01:56:57.792Z,3.90
2018-05-04T01:59:34.027Z,2.67
2018-05-04T02:02:03.050Z,4.43
2018-05-04T02:04:32.206Z,5.80
2018-05-04T02:07:00.980Z,6.17
2018-05-04T02:09:38.303Z,4.50
2018-05-04T02:12:07.065Z,3.17
2018-05-04T02:14:36.975Z,3.30
2018-05-04T02:17:06.059Z,3.80
2018-05-04T02:19:42.959Z,3.57
2018-05-04T02:22:11.778Z,7.23
2018-05-04T02:24:41.330Z,3.77
2018-05-04T02:27:10.482Z,6.13
2018-05-04T02:29:44.415Z,4.40
2018-05-04T02:32:13.178Z,3.77
2018-05-04T02:37:04.947Z,4.20
2018-05-04T02:39:33.660Z,4.00
2018-05-04T02:42:02.386Z,3.20
2018-05-04T02:44:31.580Z,5.93
2018-05-04T02:47:01.137Z,4.03
2018-05-04T02:49:29.811Z,3.60
2018-05-04T02:51:59.631Z,4.50
2018-05-04T02:54:28.312Z,5.03
2018-05-04T02:59:37.738Z,5.87
2018-05-04T03:02:06.504Z,4.93
2018-05-04T03:04:36.245Z,3.33
2018-05-04T03:07:05.004Z,4.13
2018-05-04T03:09:34.513Z,4.97
2018-05-04T03:12:04.335Z,3.60
2018-05-04T03:14:33.102Z,3.60
2018-05-04T03:17:06.597Z,3.77
2018-05-04T03:19:36.396Z,4.10
2018-05-04T03:22:09.184Z,4.90
2018-05-04T03:24:38.216Z,4.97
2018-05-04T03:27:12.494Z,3.87
2018-05-04T03:29:41.988Z,4.53
2018-05-04T03:32:19.132Z,5.43
2018-05-04T03:34:47.896Z,5.43
2018-05-04T03:37:17.105Z,4.60
2018-05-04T03:39:45.922Z,7.03
2018-05-04T03:42:18.893Z,4.00
2018-05-04T03:44:47.854Z,3.37
2018-05-04T03:47:29.114Z,6.70
2018-05-04T03:49:59.024Z,5.07
2018-05-04T03:52:28.478Z,6.40
2018-05-04T03:54:57.187Z,4.60
2018-05-04T04:00:42.572Z,3.83
2018-05-04T04:04:14.733Z,3.07
2018-05-04T04:06:43.449Z,8.80
2018-05-04T04:09:14.176Z,5.17
2018-05-04T04:11:42.968Z,5.87
2018-05-04T04:14:12.531Z,5.53
2018-05-04T04:16:41.516Z,4.87
2018-05-04T04:19:10.264Z,7.67
2018-05-04T04:21:39.037Z,5.00
2018-05-04T04:24:08.179Z,5.57
2018-05-04T04:26:37.014Z,4.67
2018-05-04T04:29:05.856Z,5.47
2018-05-04T04:31:42.869Z,3.97
2018-05-04T04:34:12.377Z,4.63
2018-05-04T04:36:42.385Z,6.50
2018-05-04T04:39:11.523Z,4.93
2018-05-04T04:41:44.919Z,5.77
2018-05-04T04:44:14.761Z,9.47
2018-05-04T04:46:46.837Z,4.57
2018-05-04T04:49:17.153Z,6.53
2018-05-04T04:51:49.697Z,8.20
2018-05-04T04:54:19.184Z,5.67
2018-05-04T04:56:55.024Z,4.60
2018-05-04T04:59:23.705Z,9.53
2018-05-04T05:01:54.497Z,5.87
2018-05-04T05:04:25.730Z,6.57
2018-05-04T05:06:58.034Z,5.40
2018-05-04T05:09:26.901Z,4.00
2018-05-04T05:12:02.976Z,4.93
2018-05-04T05:14:31.736Z,7.40
2018-05-04T05:17:02.444Z,6.33
2018-05-04T05:19:31.981Z,4.70
2018-05-04T05:22:08.539Z,6.77
2018-05-04T05:24:37.305Z,6.33
2018-05-04T05:27:07.885Z,7.07
2018-05-04T05:29:36.799Z,5.40
2018-05-04T05:32:13.292Z,4.67
2018-05-04T05:34:42.161Z,5.30
2018-05-04T05:37:14.225Z,6.77
2018-05-04T05:39:42.987Z,6.17
2018-05-04T05:42:42.985Z,6.70
2018-05-04T05:45:19.921Z,10.53
2018-05-04T05:47:48.924Z,6.83
2018-05-04T05:50:25.653Z,6.50
2018-05-04T05:52:54.457Z,7.53
2018-05-04T05:55:23.710Z,6.00
2018-05-04T05:57:53.606Z,9.07
2018-05-04T06:00:29.642Z,7.57
2018-05-04T06:02:58.463Z,7.53
2018-05-04T06:05:28.302Z,7.10
2018-05-04T06:07:57.259Z,7.13
2018-05-04T06:10:30.009Z,8.70
2018-05-04T06:12:59.184Z,8.93
2018-05-04T06:15:31.630Z,7.60
2018-05-04T06:18:01.138Z,7.57
2018-05-04T06:20:33.615Z,9.57
2018-05-04T06:23:02.517Z,8.73
2018-05-04T06:25:38.513Z,9.20
2018-05-04T06:28:07.508Z,9.67
2018-05-04T06:30:37.960Z,9.90
2018-05-04T06:33:06.775Z,11.90
2018-05-04T06:35:44.048Z,12.27
2018-05-04T06:38:12.962Z,12.67
2018-05-04T06:40:45.217Z,15.13
2018-05-04T06:43:13.982Z,13.20
2018-05-04T06:45:47.037Z,10.53
2018-05-04T06:48:16.553Z,12.93
2018-05-04T06:50:52.836Z,14.30
2018-05-04T06:53:22.685Z,14.30
2018-05-04T06:55:51.905Z,10.20
2018-05-04T06:58:21.060Z,9.53
2018-05-04T07:00:58.299Z,11.97
2018-05-04T07:03:27.070Z,12.80
2018-05-04T07:05:56.718Z,12.50
2018-05-04T07:08:26.307Z,11.67
2018-05-04T07:11:03.620Z,10.23
2018-05-04T07:13:33.134Z,15.13
2018-05-04T07:16:02.741Z,15.73
2018-05-04T07:18:32.558Z,11.40
2018-05-04T07:21:05.267Z,15.10
2018-05-04T07:23:34.009Z,15.70
2018-05-04T07:26:09.808Z,17.13
2018-05-04T07:28:38.682Z,11.70
2018-05-04T07:31:09.069Z,12.30
2018-05-04T07:33:38.937Z,11.27
2018-05-04T07:36:14.781Z,8.53
2018-05-04T07:38:43.612Z,7.57
2018-05-04T07:41:15.083Z,10.67
2018-05-04T07:43:43.896Z,12.87
2018-05-04T07:46:20.350Z,10.03
2018-05-04T07:48:49.156Z,9.67
2018-05-04T07:51:19.756Z,12.07
2018-05-04T07:53:49.713Z,11.73
2018-05-04T07:56:29.795Z,7.70
2018-05-04T07:58:58.592Z,11.53
2018-05-04T08:01:29.183Z,6.50
2018-05-04T08:03:57.976Z,7.00
2018-05-04T08:06:26.807Z,13.27
2018-05-04T08:08:56.614Z,6.87
2018-05-04T08:11:28.117Z,7.87
2018-05-04T08:13:56.883Z,12.13
2018-05-04T08:16:33.815Z,12.00
2018-05-04T08:19:02.853Z,11.20
2018-05-04T08:21:32.446Z,11.00
2018-05-04T08:24:02.492Z,7.23
2018-05-04T08:26:34.872Z,6.07
2018-05-04T08:29:03.834Z,6.67
2018-05-04T08:31:36.915Z,4.93
2018-05-04T08:34:05.751Z,6.13
2018-05-04T08:36:38.018Z,6.03
2018-05-04T08:39:07.248Z,5.27
2018-05-04T08:41:43.817Z,8.43
2018-05-04T08:44:12.617Z,5.13
2018-05-04T08:46:42.838Z,4.70
2018-05-04T08:49:11.622Z,5.73
2018-05-04T08:51:48.816Z,7.07
2018-05-04T08:54:18.732Z,5.37
2018-05-04T08:56:47.602Z,6.20
2018-05-04T08:59:16.583Z,6.03
2018-05-04T09:01:53.354Z,3.73
2018-05-04T09:04:22.308Z,7.60
2018-05-04T09:06:52.870Z,3.77
2018-05-04T09:11:55.908Z,3.40
2018-05-04T09:14:25.010Z,5.03
2018-05-04T09:16:59.163Z,6.07
2018-05-04T09:19:28.146Z,4.83
2018-05-04T09:22:00.443Z,7.50
2018-05-04T09:24:29.253Z,9.33
2018-05-04T09:27:06.129Z,3.37
2018-05-04T09:29:35.137Z,3.80
2018-05-04T09:32:05.550Z,4.60
2018-05-04T09:34:35.092Z,5.47
2018-05-04T09:37:12.316Z,5.90
2018-05-04T09:39:41.185Z,5.67
2018-05-04T09:42:10.100Z,6.97
2018-05-04T09:44:40.212Z,3.70
2018-05-04T09:49:40.736Z,4.63
2018-05-04T09:52:14.226Z,4.43
2018-05-04T09:54:43.064Z,4.53
2018-05-04T09:57:20.799Z,4.57
2018-05-04T09:59:49.801Z,5.17
2018-05-04T10:02:19.462Z,5.93
2018-05-04T10:04:49.118Z,5.87
2018-05-04T10:07:21.751Z,5.80
2018-05-04T10:09:50.683Z,4.47
2018-05-04T10:12:23.526Z,9.40
2018-05-04T10:14:53.466Z,4.03
2018-05-04T10:17:24.367Z,5.40
2018-05-04T10:19:54.032Z,5.77
2018-05-04T10:22:26.705Z,4.60
2018-05-04T10:24:55.580Z,5.43
2018-05-04T10:27:31.440Z,7.10
2018-05-04T10:30:00.717Z,7.30
2018-05-04T10:32:31.436Z,4.70
2018-05-04T10:35:00.205Z,7.10
2018-05-04T10:37:36.978Z,5.00
2018-05-04T10:40:06.584Z,7.90
2018-05-04T10:42:36.989Z,5.53
2018-05-04T10:45:06.309Z,8.97
2018-05-04T10:47:38.458Z,5.97
2018-05-04T10:50:07.324Z,7.17
2018-05-04T10:52:40.268Z,5.43
2018-05-04T10:55:09.893Z,5.27
2018-05-04T10:57:46.980Z,8.17
2018-05-04T11:00:16.185Z,6.10
2018-05-04T11:02:45.197Z,9.00
2018-05-04T11:05:14.026Z,7.97
2018-05-04T11:07:51.204Z,7.47
2018-05-04T11:10:23.688Z,9.30
2018-05-04T11:12:54.887Z,8.87
2018-05-04T11:15:24.866Z,5.90
2018-05-04T11:17:53.663Z,5.07
2018-05-04T11:20:22.471Z,8.83
2018-05-04T11:22:55.346Z,6.27
2018-05-04T11:25:24.189Z,9.50
2018-05-04T11:28:00.406Z,10.33
2018-05-04T11:30:29.505Z,5.87
2018-05-04T11:32:59.831Z,6.93
2018-05-04T11:35:28.828Z,9.40
2018-05-04T11:38:05.448Z,10.83
2018-05-04T11:40:35.199Z,7.10
2018-05-04T11:43:04.814Z,7.00
2018-05-04T11:45:33.893Z,9.60
2018-05-04T11:48:10.927Z,9.47
2018-05-04T11:50:40.812Z,8.30
2018-05-04T11:53:11.783Z,9.47
2018-05-04T11:55:40.931Z,9.00
2018-05-04T11:58:16.110Z,6.37
2018-05-04T12:00:45.323Z,11.83
2018-05-04T12:03:16.447Z,6.63
2018-05-04T12:05:45.901Z,6.07
2018-05-04T12:08:23.038Z,6.90
2018-05-04T12:10:53.097Z,10.17
2018-05-04T12:13:32.973Z,8.77
2018-05-04T12:16:02.087Z,9.17
2018-05-04T12:18:31.227Z,7.30
2018-05-04T12:21:00.267Z,5.70
2018-05-04T12:23:29.658Z,5.90
2018-05-04T12:25:58.725Z,11.20
2018-05-04T12:28:27.852Z,10.37
2018-05-04T12:30:57.210Z,5.40
2018-05-04T12:33:29.484Z,9.23
2018-05-04T12:35:58.763Z,7.50
2018-05-04T12:38:36.368Z,6.77
2018-05-04T12:41:05.940Z,9.90
2018-05-04T12:43:35.830Z,7.50
2018-05-04T12:46:04.767Z,8.30
2018-05-04T12:48:40.950Z,8.23
2018-05-04T12:51:09.796Z,7.70
2018-05-04T12:53:39.807Z,5.13
2018-05-04T12:56:09.475Z,5.10
2018-05-04T12:58:41.280Z,6.83
2018-05-04T13:01:10.885Z,5.60
2018-05-04T13:03:42.733Z,5.37
2018-05-04T13:06:11.813Z,7.53
2018-05-04T13:08:47.852Z,11.53
2018-05-04T13:11:16.830Z,5.13
2018-05-04T13:13:47.531Z,7.40
2018-05-04T13:16:17.172Z,4.87
2018-05-04T13:18:50.153Z,6.97
2018-05-04T13:21:19.325Z,10.90
2018-05-04T13:23:56.867Z,9.33
2018-05-04T13:26:25.794Z,8.27
2018-05-04T13:28:58.584Z,15.60
2018-05-04T13:31:28.303Z,5.87
2018-05-04T13:33:59.199Z,6.50
2018-05-04T13:36:28.104Z,7.00
2018-05-04T13:39:06.936Z,12.97
2018-05-04T13:41:37.087Z,6.50
2018-05-04T13:44:06.151Z,6.77
2018-05-04T13:46:35.716Z,9.47
2018-05-04T13:49:08.501Z,8.53
2018-05-04T13:51:38.618Z,6.50
2018-05-04T13:54:11.022Z,9.90
2018-05-04T13:56:40.807Z,10.90
2018-05-04T13:59:18.553Z,6.77
2018-05-04T14:01:47.659Z,6.83
2018-05-04T14:04:16.879Z,7.07
2018-05-04T14:06:46.283Z,7.17
2018-05-04T14:09:17.449Z,8.50
2018-05-04T14:11:46.495Z,5.33
2018-05-04T14:14:18.848Z,6.43
2018-05-04T14:16:48.433Z,5.90
2018-05-04T14:19:21.942Z,10.27
2018-05-04T14:21:51.897Z,7.17
2018-05-04T14:24:22.731Z,5.47
2018-05-04T14:26:51.753Z,6.43
2018-05-04T14:29:29.125Z,7.97
2018-05-04T14:31:58.712Z,5.53
2018-05-04T14:34:27.732Z,7.00
2018-05-04T14:36:57.450Z,7.07
2018-05-04T14:39:28.374Z,6.80
2018-05-04T14:41:57.263Z,6.53
2018-05-04T14:44:34.417Z,5.70
2018-05-04T14:47:03.298Z,8.80
2018-05-04T14:49:32.641Z,8.70
2018-05-04T14:52:01.819Z,7.77
2018-05-04T14:54:39.125Z,5.90
2018-05-04T14:57:09.125Z,6.47
2018-05-04T14:59:38.607Z,6.20
2018-05-04T15:02:07.511Z,11.40
2018-05-04T15:04:41.447Z,6.23
2018-05-04T15:07:10.577Z,6.37
2018-05-04T15:09:46.236Z,5.67
2018-05-04T15:12:16.089Z,6.17
2018-05-04T15:14:46.526Z,5.47
2018-05-04T15:17:15.391Z,6.40
2018-05-04T15:19:52.655Z,6.67
2018-05-04T15:22:21.591Z,6.10
2018-05-04T15:24:51.557Z,7.67
2018-05-04T15:27:20.403Z,8.43
2018-05-04T15:29:56.723Z,5.90
2018-05-04T15:32:25.989Z,6.20
2018-05-04T15:35:00.871Z,6.60
2018-05-04T15:37:31.254Z,8.30
2018-05-04T15:40:02.181Z,7.63
2018-05-04T15:42:33.663Z,6.93
2018-05-04T15:45:03.092Z,10.57
2018-05-04T15:47:33.235Z,6.50
2018-05-04T15:50:09.870Z,5.30
2018-05-04T15:52:41.084Z,12.43
2018-05-04T15:55:11.042Z,5.10
2018-05-04T15:57:41.686Z,5.57
2018-05-04T16:00:11.606Z,5.90
2018-05-04T16:02:41.295Z,8.07
2018-05-04T16:05:10.547Z,7.10
2018-05-04T16:07:40.394Z,8.10
2018-05-04T16:12:41.014Z,8.20
2018-05-04T16:15:18.151Z,6.10
2018-05-04T16:17:49.373Z,10.80
2018-05-04T16:20:20.647Z,8.10
2018-05-04T16:22:49.818Z,7.37
2018-05-04T16:25:18.989Z,6.80
2018-05-04T16:27:47.811Z,11.57
2018-05-04T16:30:21.916Z,8.57
2018-05-04T16:32:50.890Z,6.20
2018-05-04T16:35:27.638Z,6.87
2018-05-04T16:37:58.248Z,6.53
2018-05-04T16:40:27.979Z,7.07
2018-05-04T16:42:57.207Z,5.93
2018-05-04T16:45:28.790Z,6.93
2018-05-04T16:48:01.903Z,5.40
2018-05-04T16:50:31.825Z,7.87
2018-05-04T16:53:01.949Z,6.33
2018-05-04T16:55:34.148Z,7.00
2018-05-04T16:58:03.165Z,5.47
2018-05-04T17:00:35.128Z,6.50
2018-05-04T17:03:04.886Z,7.63
2018-05-04T17:05:36.844Z,5.80
2018-05-04T17:08:06.760Z,7.33
2018-05-04T17:10:38.594Z,5.07
2018-05-04T17:13:07.527Z,4.80
2018-05-04T17:15:40.650Z,5.33
2018-05-04T17:18:09.567Z,5.20
2018-05-04T17:20:47.167Z,7.13
2018-05-04T17:23:17.103Z,5.13
2018-05-04T17:25:46.065Z,5.13
2018-05-04T17:28:15.126Z,5.47
2018-05-04T17:30:51.508Z,6.13
2018-05-04T17:33:20.749Z,4.27
2018-05-04T17:35:50.811Z,4.97
2018-05-04T17:38:20.144Z,4.63
2018-05-04T17:40:52.992Z,7.35
2018-05-04T17:43:21.851Z,8.00
2018-05-04T17:45:58.060Z,6.50
2018-05-04T17:48:27.042Z,4.90
2018-05-04T17:51:03.223Z,6.57
2018-05-04T17:53:33.160Z,4.47
2018-05-04T17:56:02.853Z,7.43
2018-05-04T17:58:31.809Z,4.83
2018-05-04T18:01:04.789Z,4.07
2018-05-04T18:03:33.676Z,4.47
2018-05-04T18:06:09.804Z,4.00
2018-05-04T18:08:41.257Z,4.73
2018-05-04T18:11:13.993Z,4.47
2018-05-04T18:13:42.945Z,4.90
2018-05-04T18:16:12.539Z,4.30
2018-05-04T18:18:41.384Z,4.03
2018-05-04T18:21:18.950Z,3.57
2018-05-04T18:23:48.083Z,4.00
2018-05-04T18:26:18.141Z,7.13
2018-05-04T18:28:47.190Z,4.67
2018-05-04T18:31:25.007Z,5.50
2018-05-04T18:33:53.888Z,7.10
2018-05-04T18:36:23.696Z,8.37
2018-05-04T18:38:54.170Z,8.10
2018-05-04T18:41:25.137Z,4.70
2018-05-04T18:43:54.102Z,4.93
2018-05-04T18:46:27.126Z,9.33
2018-05-04T18:48:56.085Z,4.23
2018-05-04T18:51:28.917Z,4.30
2018-05-04T18:53:58.957Z,4.83
2018-05-04T18:56:31.580Z,5.70
2018-05-04T18:59:00.436Z,7.23
2018-05-04T19:01:34.710Z,6.73
2018-05-04T19:04:04.605Z,7.83
2018-05-04T19:06:39.521Z,6.83
2018-05-04T19:09:09.718Z,9.57
2018-05-04T19:11:40.406Z,7.27
2018-05-04T19:14:09.402Z,6.60
2018-05-04T19:16:45.991Z,10.63
2018-05-04T19:19:15.962Z,8.13
2018-05-04T19:21:45.000Z,7.70
2018-05-04T19:24:14.231Z,7.63
2018-05-04T19:26:46.601Z,6.57
2018-05-04T19:29:15.558Z,7.10
2018-05-04T19:31:48.883Z,6.30
2018-05-04T19:34:18.545Z,9.60
2018-05-04T19:36:51.279Z,9.97
2018-05-04T19:39:20.498Z,6.93
2018-05-04T19:41:52.702Z,7.87
2018-05-04T19:44:21.767Z,9.33
2018-05-04T19:46:59.173Z,8.83
2018-05-04T19:49:28.327Z,7.60
2018-05-04T19:52:00.985Z,7.80
2018-05-04T19:54:30.241Z,11.10
2018-05-04T19:57:02.164Z,7.47
2018-05-04T19:59:31.094Z,11.70
2018-05-04T20:02:08.084Z,10.03
2018-05-04T20:04:37.726Z,9.73
2018-05-04T20:07:06.769Z,10.47
2018-05-04T20:09:35.590Z,12.93
2018-05-04T20:12:12.028Z,8.07
2018-05-04T20:14:41.764Z,7.37
2018-05-04T20:17:13.749Z,8.93
2018-05-04T20:19:42.805Z,11.30
2018-05-04T20:22:14.955Z,10.50
2018-05-04T20:24:46.037Z,9.93
2018-05-04T20:27:18.597Z,9.63
2018-05-04T20:29:47.537Z,9.77
2018-05-04T20:32:19.220Z,7.63
2018-05-04T20:34:48.901Z,6.80
2018-05-04T20:37:21.533Z,8.27
2018-05-04T20:39:50.948Z,9.37
2018-05-04T20:42:27.139Z,7.10
2018-05-04T20:44:56.089Z,10.23
2018-05-04T20:47:25.909Z,8.07
2018-05-04T20:49:55.062Z,10.50
2018-05-04T20:52:28.156Z,7.00
2018-05-04T20:54:57.147Z,7.33
2018-05-04T20:57:29.478Z,7.70
2018-05-04T20:59:58.790Z,8.00
2018-05-04T21:02:31.615Z,7.37
2018-05-04T21:05:01.426Z,9.63
2018-05-04T21:07:34.383Z,8.43
2018-05-04T21:10:03.256Z,9.00
2018-05-04T21:12:35.739Z,14.60
2018-05-04T21:15:04.905Z,8.77
2018-05-04T21:17:37.254Z,9.07
2018-05-04T21:20:07.152Z,7.63
2018-05-04T21:22:39.998Z,10.27
2018-05-04T21:25:08.813Z,12.27
2018-05-04T21:27:41.472Z,7.60
2018-05-04T21:30:10.713Z,9.60
2018-05-04T21:32:44.443Z,10.27
2018-05-04T21:35:15.634Z,9.60
2018-05-04T21:37:45.633Z,13.47
2018-05-04T21:40:14.578Z,13.77
2018-05-04T21:42:51.521Z,18.43
2018-05-04T21:45:20.425Z,15.30
2018-05-04T21:47:51.094Z,13.93
2018-05-04T21:50:20.160Z,16.50
2018-05-04T21:52:53.170Z,9.70
2018-05-04T21:55:22.887Z,7.97
2018-05-04T21:57:59.104Z,16.77
2018-05-04T22:00:29.562Z,9.63
2018-05-04T22:02:58.626Z,8.20
2018-05-04T22:05:28.800Z,9.00
2018-05-04T22:08:00.972Z,9.07
2018-05-04T22:10:29.861Z,9.07
2018-05-04T22:13:03.081Z,6.50
2018-05-04T22:15:32.330Z,10.70
2018-05-04T22:18:14.439Z,8.03
2018-05-04T22:20:44.804Z,6.70
2018-05-04T22:23:14.401Z,7.27
2018-05-04T22:25:43.423Z,7.80
2018-05-04T22:28:13.992Z,9.17
2018-05-04T22:30:42.863Z,8.70
2018-05-04T22:33:13.922Z,7.70
2018-05-04T22:35:42.868Z,7.77
2018-05-04T22:38:15.702Z,9.93
2018-05-04T22:40:44.803Z,7.87
2018-05-04T22:43:21.385Z,11.07
2018-05-04T22:45:50.297Z,7.17
2018-05-04T22:48:19.835Z,10.07
2018-05-04T22:50:48.660Z,6.63
2018-05-04T22:53:22.046Z,8.30
2018-05-04T22:55:51.376Z,10.53
2018-05-04T22:58:23.541Z,7.83
2018-05-04T23:00:52.679Z,6.47
2018-05-04T23:03:28.763Z,6.30
2018-05-04T23:05:57.786Z,6.97
2018-05-04T23:08:27.981Z,9.90
2018-05-04T23:10:56.755Z,7.33
2018-05-04T23:13:34.684Z,9.53
2018-05-04T23:16:03.843Z,9.50
2018-05-04T23:18:33.482Z,9.20
2018-05-04T23:21:02.334Z,8.10
2018-05-04T23:23:34.617Z,8.37
2018-05-04T23:26:03.533Z,9.10
2018-05-04T23:28:40.148Z,9.47
2018-05-04T23:31:10.016Z,9.13
2018-05-04T23:33:38.931Z,11.20
2018-05-04T23:36:07.782Z,6.07
2018-05-04T23:38:41.261Z,9.90
2018-05-04T23:41:10.250Z,7.33
2018-05-04T23:43:46.373Z,7.40
2018-05-04T23:46:15.376Z,8.53
2018-05-04T23:48:45.687Z,8.47
2018-05-04T23:51:14.586Z,6.60
2018-05-04T23:53:51.914Z,6.10
2018-05-04T23:56:20.701Z,8.27
2018-05-04T23:58:50.500Z,9.83
